createdAt,value
2023-02-19T00:01:01.520Z,8.32
2023-02-19T00:03:28.094Z,3.65
2023-02-19T00:05:54.596Z,5.95
2023-02-19T00:08:21.079Z,6.00
2023-02-19T00:10:47.566Z,9.00
2023-02-19T00:13:14.880Z,9.00
2023-02-19T00:15:41.363Z,7.15
2023-02-19T00:18:07.834Z,5.40
2023-02-19T00:20:34.315Z,7.53
2023-02-19T00:23:00.843Z,6.78
2023-02-19T00:25:27.367Z,5.88
2023-02-19T00:27:54.072Z,10.60
2023-02-19T00:30:20.691Z,8.05
2023-02-19T00:32:51.347Z,10.07
2023-02-19T00:35:17.843Z,9.10
2023-02-19T00:37:44.306Z,6.97
2023-02-19T00:40:11.023Z,8.15
2023-02-19T00:42:37.478Z,5.22
2023-02-19T00:45:04.502Z,7.40
2023-02-19T00:47:31.000Z,6.57
2023-02-19T00:49:57.413Z,7.65
2023-02-19T00:52:23.847Z,8.68
2023-02-19T00:54:50.296Z,8.32
2023-02-19T01:01:40.710Z,7.70
2023-02-19T01:04:07.694Z,8.50
2023-02-19T01:06:35.326Z,9.07
2023-02-19T01:09:02.816Z,9.15
2023-02-19T01:11:29.334Z,8.25
2023-02-19T01:14:00.833Z,6.78
2023-02-19T01:16:28.261Z,9.65
2023-02-19T01:18:54.823Z,6.88
2023-02-19T01:21:23.804Z,7.70
2023-02-19T01:23:51.543Z,6.55
2023-02-19T01:26:20.880Z,6.25
2023-02-19T01:28:48.441Z,5.18
2023-02-19T01:31:21.609Z,9.50
2023-02-19T01:33:51.220Z,5.10
2023-02-19T01:36:18.186Z,4.40
2023-02-19T01:38:44.947Z,7.23
2023-02-19T01:41:14.623Z,4.07
2023-02-19T01:44:01.513Z,5.25
2023-02-19T01:46:32.990Z,7.22
2023-02-19T01:49:06.461Z,5.72
2023-02-19T01:51:35.562Z,5.10
2023-02-19T01:54:05.469Z,3.83
2023-02-19T01:56:36.420Z,3.75
2023-02-19T01:59:03.058Z,6.50
2023-02-19T02:01:29.701Z,6.28
2023-02-19T02:03:56.313Z,4.90
2023-02-19T02:06:26.003Z,3.75
2023-02-19T02:09:14.415Z,3.70
2023-02-19T02:11:47.269Z,4.93
2023-02-19T02:14:14.559Z,5.60
2023-02-19T02:17:07.374Z,5.40
2023-02-19T02:20:03.659Z,5.55
2023-02-19T02:22:36.416Z,6.75
2023-02-19T02:25:20.134Z,6.82
2023-02-19T02:28:11.758Z,7.75
2023-02-19T02:30:43.588Z,4.80
2023-02-19T02:33:28.141Z,9.43
2023-02-19T02:35:59.328Z,7.75
2023-02-19T02:38:29.881Z,9.88
2023-02-19T02:40:57.149Z,7.63
2023-02-19T02:43:24.204Z,6.30
2023-02-19T02:45:50.761Z,10.10
2023-02-19T02:48:24.725Z,9.60
2023-02-19T02:51:00.179Z,9.68
2023-02-19T02:53:59.069Z,9.00
2023-02-19T02:56:26.361Z,9.15
2023-02-19T02:58:54.831Z,7.38
2023-02-19T03:01:47.781Z,9.35
2023-02-19T03:04:59.590Z,9.98
2023-02-19T03:07:31.103Z,6.55
2023-02-19T03:10:00.602Z,11.68
2023-02-19T03:12:49.653Z,8.63
2023-02-19T03:15:35.493Z,6.78
2023-02-19T03:18:24.092Z,8.27
2023-02-19T03:20:54.934Z,13.85
2023-02-19T03:23:43.314Z,8.35
2023-02-19T03:26:12.144Z,8.40
2023-02-19T03:29:01.268Z,10.60
2023-02-19T03:31:30.468Z,10.30
2023-02-19T03:34:00.687Z,10.80
2023-02-19T03:36:33.704Z,15.43
2023-02-19T03:39:04.581Z,17.15
2023-02-19T03:41:43.491Z,13.80
2023-02-19T03:44:13.927Z,17.65
2023-02-19T03:47:15.719Z,11.82
2023-02-19T03:50:11.743Z,12.80
2023-02-19T03:52:47.178Z,20.88
2023-02-19T03:55:32.037Z,11.68
2023-02-19T03:58:20.380Z,9.80
2023-02-19T04:01:07.336Z,11.27
2023-02-19T04:03:52.206Z,15.35
2023-02-19T04:06:26.001Z,15.52
2023-02-19T04:08:56.298Z,6.88
2023-02-19T04:11:24.598Z,14.45
2023-02-19T04:13:56.728Z,15.75
2023-02-19T04:16:28.638Z,13.70
2023-02-19T04:19:02.524Z,9.45
2023-02-19T04:21:31.969Z,19.63
2023-02-19T04:24:03.986Z,9.07
2023-02-19T04:26:32.163Z,15.32
2023-02-19T04:28:58.629Z,9.07
2023-02-19T04:31:27.284Z,21.98
2023-02-19T04:33:53.803Z,20.20
2023-02-19T04:36:20.298Z,20.27
2023-02-19T04:38:46.816Z,9.57
2023-02-19T04:41:13.435Z,19.27
2023-02-19T04:43:39.989Z,13.73
2023-02-19T04:46:06.525Z,13.13
2023-02-19T04:48:33.016Z,20.88
2023-02-19T04:50:59.541Z,16.38
2023-02-19T04:53:26.017Z,24.35
2023-02-19T04:55:53.469Z,22.38
2023-02-19T04:58:20.674Z,22.65
2023-02-19T05:00:51.036Z,13.00
2023-02-19T05:03:17.471Z,21.13
2023-02-19T05:05:44.022Z,21.35
2023-02-19T05:08:10.486Z,20.98
2023-02-19T05:10:36.912Z,24.65
2023-02-19T05:13:03.392Z,13.55
2023-02-19T05:15:29.853Z,20.70
2023-02-19T05:17:56.300Z,18.75
2023-02-19T05:20:23.091Z,17.45
2023-02-19T05:22:49.584Z,16.60
2023-02-19T05:25:16.224Z,16.70
2023-02-19T05:27:42.715Z,11.25
2023-02-19T05:30:10.176Z,12.50
2023-02-19T05:32:36.970Z,19.77
2023-02-19T05:35:03.721Z,14.95
2023-02-19T05:37:30.206Z,12.75
2023-02-19T05:39:56.761Z,21.73
2023-02-19T05:42:23.319Z,17.75
2023-02-19T05:44:49.786Z,19.63
2023-02-19T05:47:16.330Z,19.42
2023-02-19T05:49:42.950Z,18.40
2023-02-19T05:52:09.503Z,16.13
2023-02-19T05:54:36.000Z,20.48
2023-02-19T05:57:02.461Z,22.23
2023-02-19T05:59:29.155Z,17.05
2023-02-19T06:01:55.838Z,19.58
2023-02-19T06:04:22.372Z,28.60
2023-02-19T06:06:49.152Z,20.02
2023-02-19T06:09:15.956Z,11.30
2023-02-19T06:11:43.648Z,13.93
2023-02-19T06:14:12.734Z,21.70
2023-02-19T06:16:39.430Z,22.42
2023-02-19T06:19:06.048Z,16.65
2023-02-19T06:21:32.549Z,13.70
2023-02-19T06:23:59.227Z,14.57
2023-02-19T06:26:26.039Z,17.25
2023-02-19T06:28:54.110Z,26.38
2023-02-19T06:31:22.258Z,17.83
2023-02-19T06:33:50.736Z,12.68
2023-02-19T06:36:19.408Z,18.98
2023-02-19T06:38:46.406Z,18.73
2023-02-19T06:41:14.106Z,16.10
2023-02-19T06:46:08.028Z,18.15
2023-02-19T06:48:35.382Z,13.32
2023-02-19T06:51:01.901Z,9.10
2023-02-19T06:53:28.449Z,14.13
2023-02-19T06:56:03.285Z,13.80
2023-02-19T06:58:30.151Z,17.02
2023-02-19T07:00:56.737Z,15.45
2023-02-19T07:03:23.756Z,18.23
2023-02-19T07:05:53.274Z,17.98
2023-02-19T07:08:20.006Z,20.95
2023-02-19T07:10:53.773Z,18.65
2023-02-19T07:13:24.012Z,9.75
2023-02-19T07:15:52.196Z,11.48
2023-02-19T07:18:19.234Z,18.90
2023-02-19T07:20:45.964Z,9.82
2023-02-19T07:23:12.592Z,16.88
2023-02-19T07:25:39.769Z,12.88
2023-02-19T07:28:07.053Z,20.07
2023-02-19T07:33:44.074Z,21.25
2023-02-19T07:38:58.675Z,16.85
2023-02-19T07:41:31.494Z,8.98
2023-02-19T07:43:58.669Z,14.60
2023-02-19T07:46:25.813Z,12.30
2023-02-19T07:51:33.306Z,8.82
2023-02-19T07:54:00.536Z,13.47
2023-02-19T07:56:28.885Z,11.40
2023-02-19T07:58:55.381Z,11.02
2023-02-19T08:01:45.620Z,14.77
2023-02-19T08:04:14.086Z,8.15
2023-02-19T08:06:43.294Z,8.23
2023-02-19T08:09:09.989Z,9.95
2023-02-19T08:11:55.223Z,17.33
2023-02-19T08:14:26.658Z,7.97
2023-02-19T08:16:54.080Z,9.63
2023-02-19T08:19:21.537Z,8.75
2023-02-19T08:21:50.637Z,12.38
2023-02-19T08:24:17.240Z,16.42
2023-02-19T08:26:43.729Z,8.65
2023-02-19T08:29:10.532Z,9.48
2023-02-19T08:31:37.710Z,16.27
2023-02-19T08:34:04.368Z,15.38
2023-02-19T08:36:31.206Z,26.25
2023-02-19T08:38:57.695Z,14.35
2023-02-19T08:41:24.233Z,11.50
2023-02-19T08:43:50.895Z,19.15
2023-02-19T08:46:17.366Z,6.65
2023-02-19T08:48:43.857Z,10.70
2023-02-19T08:51:12.261Z,13.35
2023-02-19T08:53:40.569Z,18.35
2023-02-19T08:56:08.984Z,11.93
2023-02-19T08:58:37.495Z,7.60
2023-02-19T09:01:09.052Z,15.95
2023-02-19T09:03:35.862Z,18.60
2023-02-19T09:06:02.316Z,10.65
2023-02-19T09:08:28.949Z,8.90
2023-02-19T09:11:03.630Z,10.00
2023-02-19T09:13:30.461Z,8.38
2023-02-19T09:15:57.397Z,12.50
2023-02-19T09:18:25.956Z,17.57
2023-02-19T09:20:53.029Z,10.30
2023-02-19T09:23:19.815Z,12.23
2023-02-19T09:25:46.578Z,14.32
2023-02-19T09:28:13.324Z,16.08
2023-02-19T09:30:39.970Z,14.35
2023-02-19T09:33:07.068Z,7.97
2023-02-19T09:35:36.838Z,6.70
2023-02-19T09:38:03.442Z,15.25
2023-02-19T09:40:30.498Z,8.23
2023-02-19T09:42:57.802Z,10.23
2023-02-19T09:45:26.789Z,10.57
2023-02-19T09:47:56.435Z,4.57
2023-02-19T09:50:30.312Z,12.18
2023-02-19T09:53:01.429Z,23.02
2023-02-19T09:55:36.321Z,12.43
2023-02-19T09:58:27.965Z,15.25
2023-02-19T10:00:56.609Z,7.18
2023-02-19T10:03:33.686Z,7.60
2023-02-19T10:06:05.063Z,5.03
2023-02-19T10:08:34.414Z,10.88
2023-02-19T10:11:02.740Z,16.50
2023-02-19T10:13:40.120Z,4.78
2023-02-19T10:16:11.663Z,12.05
2023-02-19T10:18:41.436Z,5.75
2023-02-19T10:21:12.793Z,7.13
2023-02-19T10:23:41.332Z,9.25
2023-02-19T10:26:07.888Z,11.05
2023-02-19T10:28:36.152Z,18.15
2023-02-19T10:31:13.411Z,11.90
2023-02-19T10:34:01.207Z,14.35
2023-02-19T10:38:58.800Z,9.75
2023-02-19T10:41:26.871Z,9.73
2023-02-19T10:44:06.630Z,13.63
2023-02-19T10:46:37.454Z,13.07
2023-02-19T10:49:18.014Z,10.85
2023-02-19T10:51:44.641Z,15.65
2023-02-19T10:54:26.777Z,13.00
2023-02-19T10:56:54.186Z,6.10
2023-02-19T10:59:24.081Z,9.40
2023-02-19T11:01:59.136Z,13.07
2023-02-19T11:04:27.858Z,10.85
2023-02-19T11:06:55.063Z,13.77
2023-02-19T11:09:31.000Z,7.15
2023-02-19T11:12:02.940Z,7.22
2023-02-19T11:14:32.086Z,9.75
2023-02-19T11:17:05.093Z,11.82
2023-02-19T11:19:44.981Z,10.75
2023-02-19T11:22:35.687Z,9.73
2023-02-19T11:25:06.821Z,9.55
2023-02-19T11:27:33.737Z,7.30
2023-02-19T11:30:35.584Z,8.18
2023-02-19T11:33:21.966Z,51.45
2023-02-19T11:36:00.706Z,35.08
2023-02-19T11:38:27.634Z,9.63
2023-02-19T11:41:15.417Z,13.40
2023-02-19T11:44:14.540Z,7.75
2023-02-19T11:46:48.922Z,5.93
2023-02-19T11:49:34.090Z,6.68
2023-02-19T11:52:26.940Z,7.30
2023-02-19T11:55:08.388Z,5.35
2023-02-19T11:57:38.516Z,5.03
2023-02-19T12:00:55.819Z,3.72
2023-02-19T12:03:51.968Z,6.75
2023-02-19T12:06:38.236Z,6.20
2023-02-19T12:09:19.736Z,9.20
2023-02-19T12:11:46.302Z,10.18
2023-02-19T12:14:38.045Z,6.32
2023-02-19T12:17:48.692Z,6.30
2023-02-19T12:20:42.726Z,9.20
2023-02-19T12:23:14.939Z,7.13
2023-02-19T12:25:53.328Z,4.35
2023-02-19T12:28:36.725Z,6.25
2023-02-19T12:31:39.685Z,3.88
2023-02-19T12:34:12.240Z,7.45
2023-02-19T12:36:57.121Z,8.38
2023-02-19T12:39:54.809Z,7.82
2023-02-19T12:42:52.383Z,7.60
2023-02-19T12:45:33.362Z,4.82
2023-02-19T12:48:07.307Z,9.95
2023-02-19T12:50:35.832Z,2.97
2023-02-19T12:53:24.357Z,7.82
2023-02-19T12:55:52.513Z,7.50
2023-02-19T12:58:28.237Z,6.43
2023-02-19T13:00:59.094Z,4.63
2023-02-19T13:03:33.756Z,3.97
2023-02-19T13:06:15.581Z,12.43
2023-02-19T13:09:05.307Z,6.00
2023-02-19T13:11:41.830Z,4.00
2023-02-19T13:14:37.540Z,5.72
2023-02-19T13:17:24.078Z,4.18
2023-02-19T13:19:56.463Z,2.75
2023-02-19T13:23:00.965Z,3.42
2023-02-19T13:25:45.269Z,3.67
2023-02-19T13:28:33.913Z,4.60
2023-02-19T13:31:13.619Z,5.72
2023-02-19T13:34:05.708Z,6.10
2023-02-19T13:36:35.621Z,4.65
2023-02-19T13:39:05.587Z,2.60
2023-02-19T13:41:39.346Z,4.38
2023-02-19T13:44:08.518Z,4.47
2023-02-19T13:46:44.038Z,3.20
2023-02-19T13:49:22.877Z,4.80
2023-02-19T13:51:53.245Z,4.70
2023-02-19T13:54:29.225Z,2.55
2023-02-19T13:57:20.813Z,4.03
2023-02-19T13:59:48.347Z,4.97
2023-02-19T14:02:20.814Z,3.67
2023-02-19T14:05:06.868Z,7.18
2023-02-19T14:07:47.908Z,4.45
2023-02-19T14:10:51.391Z,2.60
2023-02-19T14:13:58.058Z,4.80
2023-02-19T14:16:32.325Z,4.63
2023-02-19T14:18:59.052Z,6.18
2023-02-19T14:21:35.694Z,8.57
2023-02-19T14:24:03.812Z,3.45
2023-02-19T14:26:33.002Z,5.45
2023-02-19T14:29:01.089Z,6.55
2023-02-19T14:31:32.016Z,8.57
2023-02-19T14:34:13.701Z,4.07
2023-02-19T14:36:48.854Z,8.18
2023-02-19T14:39:23.359Z,9.30
2023-02-19T14:41:53.271Z,8.02
2023-02-19T14:44:26.986Z,5.70
2023-02-19T14:47:05.900Z,3.47
2023-02-19T14:49:46.878Z,5.47
2023-02-19T14:52:36.775Z,7.38
2023-02-19T14:55:14.555Z,5.38
2023-02-19T15:00:22.086Z,9.13
2023-02-19T15:02:51.250Z,11.13
2023-02-19T15:05:31.739Z,11.05
2023-02-19T15:08:00.849Z,8.77
2023-02-19T15:10:29.354Z,9.27
2023-02-19T15:12:57.681Z,12.00
2023-02-19T15:15:29.787Z,5.45
2023-02-19T15:17:57.816Z,11.43
2023-02-19T15:20:27.531Z,10.15
2023-02-19T15:22:55.949Z,5.05
2023-02-19T15:25:24.703Z,13.10
2023-02-19T15:27:51.188Z,8.63
2023-02-19T15:30:27.534Z,12.80
2023-02-19T15:32:57.119Z,10.13
2023-02-19T15:35:25.327Z,13.60
2023-02-19T15:37:53.549Z,10.77
2023-02-19T15:40:20.676Z,13.13
2023-02-19T15:42:47.840Z,12.03
2023-02-19T15:45:29.411Z,11.30
2023-02-19T15:48:02.316Z,12.65
2023-02-19T15:50:31.767Z,11.95
2023-02-19T15:53:07.088Z,8.20
2023-02-19T15:55:45.547Z,14.23
2023-02-19T15:58:18.210Z,7.45
2023-02-19T16:00:55.932Z,10.57
2023-02-19T16:06:05.199Z,15.05
2023-02-19T16:08:39.715Z,18.27
2023-02-19T16:11:34.055Z,15.77
2023-02-19T16:14:19.306Z,12.82
2023-02-19T16:16:48.638Z,15.93
2023-02-19T16:19:30.827Z,17.67
2023-02-19T16:21:58.577Z,14.13
2023-02-19T16:24:30.199Z,9.35
2023-02-19T16:26:57.547Z,15.32
2023-02-19T16:29:30.126Z,18.05
2023-02-19T16:31:59.726Z,11.10
2023-02-19T16:34:34.454Z,13.13
2023-02-19T16:37:02.654Z,19.23
2023-02-19T16:39:29.945Z,11.88
2023-02-19T16:42:12.477Z,38.25
2023-02-19T16:44:39.005Z,16.42
2023-02-19T16:47:12.642Z,14.27
2023-02-19T16:49:40.298Z,11.25
2023-02-19T16:52:06.871Z,11.30
2023-02-19T16:54:33.421Z,9.32
2023-02-19T16:56:59.944Z,10.10
2023-02-19T16:59:26.434Z,9.45
2023-02-19T17:01:52.907Z,11.60
2023-02-19T17:04:19.527Z,16.30
2023-02-19T17:06:47.204Z,13.65
2023-02-19T17:09:13.757Z,5.30
2023-02-19T17:11:40.311Z,14.23
2023-02-19T17:14:07.050Z,8.82
2023-02-19T17:16:40.751Z,15.40
2023-02-19T17:19:18.349Z,10.15
2023-02-19T17:21:46.721Z,11.98
2023-02-19T17:24:13.705Z,10.35
2023-02-19T17:26:40.242Z,8.07
2023-02-19T17:29:08.825Z,7.30
2023-02-19T17:31:35.416Z,14.07
2023-02-19T17:34:01.939Z,7.57
2023-02-19T17:36:30.852Z,8.40
2023-02-19T17:38:58.900Z,10.32
2023-02-19T17:41:25.654Z,8.90
2023-02-19T17:43:52.606Z,4.50
2023-02-19T17:46:23.445Z,8.20
2023-02-19T17:48:50.579Z,6.78
2023-02-19T17:51:17.271Z,9.10
2023-02-19T17:53:44.000Z,7.40
2023-02-19T17:56:16.450Z,6.13
2023-02-19T17:58:42.941Z,4.07
2023-02-19T18:01:09.613Z,2.58
2023-02-19T18:03:37.582Z,5.78
2023-02-19T18:06:05.077Z,2.08
2023-02-19T18:08:31.585Z,1.13
2023-02-19T18:10:58.026Z,2.20
2023-02-19T18:13:24.613Z,1.85
2023-02-19T18:15:51.235Z,1.48
2023-02-19T18:18:17.809Z,1.92
2023-02-19T18:20:56.164Z,3.10
2023-02-19T18:23:22.678Z,1.90
2023-02-19T18:25:49.199Z,5.03
2023-02-19T18:28:16.143Z,1.05
2023-02-19T18:30:42.820Z,2.27
2023-02-19T18:33:11.008Z,1.38
2023-02-19T18:35:38.100Z,1.27
2023-02-19T18:38:04.657Z,0.73
2023-02-19T18:40:31.128Z,3.03
2023-02-19T18:42:58.675Z,0.38
2023-02-19T18:45:25.422Z,0.65
2023-02-19T18:47:52.050Z,0.10
2023-02-19T18:50:19.629Z,0.73
2023-02-19T18:52:46.447Z,0.50
2023-02-19T18:58:40.396Z,0.75
2023-02-19T19:01:06.939Z,1.40
2023-02-19T19:03:34.517Z,0.43
2023-02-19T19:06:01.423Z,0.20
2023-02-19T19:08:30.395Z,0.77
2023-02-19T19:10:57.183Z,2.55
2023-02-19T19:13:24.019Z,1.40
2023-02-19T19:15:51.243Z,2.30
2023-02-19T19:18:18.463Z,2.58
2023-02-19T19:20:45.079Z,0.73
2023-02-19T19:23:11.817Z,0.57
2023-02-19T19:25:38.262Z,2.03
2023-02-19T19:28:05.016Z,0.50
2023-02-19T19:30:31.616Z,1.30
2023-02-19T19:32:58.225Z,1.08
2023-02-19T19:35:24.874Z,1.95
2023-02-19T19:37:51.524Z,1.08
2023-02-19T19:40:18.851Z,2.28
2023-02-19T19:42:46.093Z,0.63
2023-02-19T19:45:13.861Z,0.35
2023-02-19T19:50:06.956Z,3.05
2023-02-19T19:52:33.442Z,0.52
2023-02-19T19:54:59.985Z,0.77
2023-02-19T19:57:26.466Z,2.17
2023-02-19T19:59:52.994Z,1.23
2023-02-19T20:02:19.595Z,2.30
2023-02-19T20:04:46.125Z,1.48
2023-02-19T20:07:12.608Z,2.92
2023-02-19T20:09:39.076Z,2.13
2023-02-19T20:12:06.552Z,2.03
2023-02-19T20:14:33.829Z,0.65
2023-02-19T20:17:00.399Z,1.17
2023-02-19T20:19:26.895Z,1.55
2023-02-19T20:21:54.148Z,1.05
2023-02-19T20:24:26.439Z,0.82
2023-02-19T20:26:58.691Z,0.63
2023-02-19T20:29:29.847Z,1.00
2023-02-19T20:31:59.913Z,2.15
2023-02-19T20:34:27.033Z,0.50
2023-02-19T20:36:53.870Z,4.15
2023-02-19T20:39:23.625Z,1.67
2023-02-19T20:41:53.027Z,0.82
2023-02-19T20:44:20.095Z,0.73
2023-02-19T20:46:48.970Z,1.93
2023-02-19T20:49:17.378Z,1.50
2023-02-19T20:51:44.265Z,0.98
2023-02-19T20:54:10.861Z,0.98
2023-02-19T20:56:37.376Z,0.75
2023-02-19T20:59:03.877Z,2.08
2023-02-19T21:01:30.523Z,1.80
2023-02-19T21:03:57.220Z,1.50
2023-02-19T21:06:24.864Z,3.80
2023-02-19T21:08:51.355Z,0.98
2023-02-19T21:11:17.941Z,1.17
2023-02-19T21:13:44.560Z,4.72
2023-02-19T21:16:11.498Z,1.38
2023-02-19T21:18:38.209Z,1.50
2023-02-19T21:21:04.900Z,1.58
2023-02-19T21:23:31.445Z,2.25
2023-02-19T21:25:57.965Z,2.70
2023-02-19T21:28:24.712Z,1.50
2023-02-19T21:30:51.333Z,2.58
2023-02-19T21:33:17.808Z,1.92
2023-02-19T21:35:45.151Z,1.67
2023-02-19T21:38:11.629Z,0.60
2023-02-19T21:40:39.362Z,2.40
2023-02-19T21:43:05.822Z,1.50
2023-02-19T21:45:33.532Z,1.00
2023-02-19T21:48:00.021Z,19.77
2023-02-19T21:50:26.523Z,3.55
2023-02-19T21:52:53.601Z,4.18
2023-02-19T21:55:20.154Z,3.17
2023-02-19T21:57:46.633Z,1.90
2023-02-19T22:00:13.739Z,1.70
2023-02-19T22:02:42.103Z,1.97
2023-02-19T22:05:08.891Z,1.10
2023-02-19T22:07:35.457Z,1.45
2023-02-19T22:10:02.073Z,3.08
2023-02-19T22:12:28.714Z,1.30
2023-02-19T22:14:55.241Z,5.97
2023-02-19T22:17:22.309Z,4.15
2023-02-19T22:19:48.811Z,3.57
2023-02-19T22:22:15.316Z,3.58
2023-02-19T22:24:41.922Z,5.38
2023-02-19T22:27:08.558Z,3.85
2023-02-19T22:29:35.120Z,3.88
2023-02-19T22:32:01.783Z,3.08
2023-02-19T22:34:28.373Z,3.35
2023-02-19T22:36:54.969Z,4.07
2023-02-19T22:39:24.825Z,3.80
2023-02-19T22:41:51.514Z,4.22
2023-02-19T22:44:18.310Z,5.40
2023-02-19T22:46:53.049Z,4.60
2023-02-19T22:49:20.813Z,5.15
2023-02-19T22:51:54.800Z,6.28
2023-02-19T22:54:27.061Z,8.80
2023-02-19T22:56:54.489Z,6.15
2023-02-19T22:59:21.518Z,5.65
2023-02-19T23:01:49.014Z,5.77
2023-02-19T23:04:16.028Z,9.38
2023-02-19T23:06:47.142Z,9.93
2023-02-19T23:09:23.660Z,9.70
2023-02-19T23:11:50.595Z,11.48
2023-02-19T23:14:19.455Z,9.48
2023-02-19T23:16:45.915Z,7.07
2023-02-19T23:19:14.648Z,7.90
2023-02-19T23:21:43.087Z,8.45
2023-02-19T23:24:09.728Z,13.38
2023-02-19T23:26:36.438Z,14.63
2023-02-19T23:29:03.354Z,11.32
2023-02-19T23:31:29.871Z,10.50
2023-02-19T23:33:56.397Z,10.15
2023-02-19T23:36:23.872Z,12.15
2023-02-19T23:38:50.708Z,49.78
2023-02-19T23:41:17.535Z,12.45
2023-02-19T23:43:44.784Z,11.05
2023-02-19T23:46:17.728Z,8.55
2023-02-19T23:48:45.959Z,9.85
2023-02-19T23:51:12.604Z,7.90
2023-02-19T23:53:39.091Z,11.27
2023-02-19T23:56:06.257Z,9.70
2023-02-19T23:58:32.861Z,9.90
